createdAt,value
2023-08-14T00:00:43.348Z,18.20
2023-08-14T00:03:10.212Z,19.50
2023-08-14T00:05:36.921Z,19.40
2023-08-14T00:08:03.774Z,19.40
2023-08-14T00:10:30.504Z,19.50
2023-08-14T00:12:57.210Z,19.40
2023-08-14T00:15:24.026Z,19.40
2023-08-14T00:17:52.356Z,19.40
2023-08-14T00:20:19.156Z,19.40
2023-08-14T00:22:45.915Z,19.40
2023-08-14T00:25:12.992Z,19.30
2023-08-14T00:27:39.894Z,19.30
2023-08-14T00:30:07.272Z,19.30
2023-08-14T00:32:34.022Z,19.30
2023-08-14T00:35:00.766Z,19.30
2023-08-14T00:37:42.196Z,19.30
2023-08-14T00:40:10.537Z,19.30
2023-08-14T00:42:39.335Z,19.30
2023-08-14T00:45:07.590Z,19.30
2023-08-14T00:47:38.193Z,19.30
2023-08-14T00:50:06.068Z,19.20
2023-08-14T00:52:35.410Z,19.20
2023-08-14T00:55:10.335Z,19.20
2023-08-14T00:57:37.508Z,19.20
2023-08-14T01:00:08.948Z,19.20
2023-08-14T01:02:37.012Z,19.20
2023-08-14T01:05:03.959Z,19.20
2023-08-14T01:07:31.182Z,19.00
2023-08-14T01:09:58.465Z,19.90
2023-08-14T01:12:55.292Z,19.10
2023-08-14T01:15:27.714Z,19.10
2023-08-14T01:17:59.819Z,19.10
2023-08-14T01:20:30.320Z,19.10
2023-08-14T01:23:18.395Z,19.10
2023-08-14T01:25:45.184Z,19.10
2023-08-14T01:28:12.207Z,19.00
2023-08-14T01:30:39.660Z,19.00
2023-08-14T01:33:06.422Z,19.00
2023-08-14T01:35:53.831Z,19.00
2023-08-14T01:38:32.983Z,19.00
2023-08-14T01:41:12.043Z,18.90
2023-08-14T01:43:41.421Z,18.90
2023-08-14T01:46:10.181Z,18.90
2023-08-14T01:48:39.100Z,18.90
2023-08-14T01:51:06.737Z,18.70
2023-08-14T01:53:35.244Z,18.90
2023-08-14T01:56:02.652Z,18.90
2023-08-14T01:58:30.366Z,18.80
2023-08-14T02:00:57.101Z,18.90
2023-08-14T02:03:23.933Z,18.80
2023-08-14T02:05:50.614Z,18.80
2023-08-14T02:08:17.345Z,17.20
2023-08-14T02:10:43.984Z,18.80
2023-08-14T02:13:10.632Z,18.80
2023-08-14T02:15:38.337Z,18.80
2023-08-14T02:18:05.290Z,18.70
2023-08-14T02:20:31.964Z,18.70
2023-08-14T02:22:58.627Z,18.70
2023-08-14T02:25:25.239Z,18.70
2023-08-14T02:27:51.868Z,18.60
2023-08-14T02:30:18.526Z,18.60
2023-08-14T02:32:45.214Z,18.60
2023-08-14T02:35:11.964Z,18.60
2023-08-14T02:37:39.553Z,16.90
2023-08-14T02:40:07.860Z,18.60
2023-08-14T02:42:34.531Z,18.50
2023-08-14T02:45:01.246Z,18.50
2023-08-14T02:47:27.994Z,18.50
2023-08-14T02:49:54.712Z,18.50
2023-08-14T02:52:21.395Z,18.50
2023-08-14T02:54:48.045Z,18.40
2023-08-14T02:57:14.747Z,18.50
2023-08-14T02:59:41.577Z,18.50
2023-08-14T03:02:08.303Z,18.50
2023-08-14T03:04:35.011Z,18.50
2023-08-14T03:07:01.660Z,18.40
2023-08-14T03:09:28.349Z,18.50
2023-08-14T03:11:55.002Z,18.40
2023-08-14T03:14:21.657Z,18.40
2023-08-14T03:16:48.370Z,18.40
2023-08-14T03:19:15.068Z,18.30
2023-08-14T03:21:42.390Z,18.30
2023-08-14T03:24:09.068Z,18.30
2023-08-14T03:26:35.800Z,18.30
2023-08-14T03:29:02.493Z,18.30
2023-08-14T03:31:29.226Z,18.30
2023-08-14T03:33:55.954Z,18.20
2023-08-14T03:36:22.629Z,18.20
2023-08-14T03:38:49.266Z,18.20
2023-08-14T03:41:15.954Z,18.20
2023-08-14T03:43:42.612Z,18.20
2023-08-14T03:46:09.305Z,18.20
2023-08-14T03:48:36.004Z,18.10
2023-08-14T03:51:02.669Z,18.20
2023-08-14T03:53:29.374Z,18.10
2023-08-14T03:55:56.447Z,18.10
2023-08-14T03:58:23.348Z,18.10
2023-08-14T04:00:50.057Z,18.10
2023-08-14T04:03:16.888Z,18.10
2023-08-14T04:05:43.556Z,18.10
2023-08-14T04:08:10.803Z,18.10
2023-08-14T04:10:38.340Z,18.10
2023-08-14T04:13:05.095Z,18.10
2023-08-14T04:15:31.836Z,18.10
2023-08-14T04:17:58.575Z,18.10
2023-08-14T04:20:25.292Z,18.10
2023-08-14T04:22:51.981Z,18.10
2023-08-14T04:25:20.091Z,18.20
2023-08-14T04:27:47.001Z,18.10
2023-08-14T04:30:14.127Z,18.10
2023-08-14T04:32:42.038Z,18.20
2023-08-14T04:35:09.655Z,18.20
2023-08-14T04:37:36.377Z,18.10
2023-08-14T04:40:03.374Z,18.20
2023-08-14T04:42:30.047Z,18.20
2023-08-14T04:44:56.723Z,18.30
2023-08-14T04:47:23.529Z,18.30
2023-08-14T04:49:50.185Z,18.30
2023-08-14T04:52:17.169Z,17.40
2023-08-14T04:54:44.016Z,18.30
2023-08-14T04:57:10.676Z,18.40
2023-08-14T04:59:37.348Z,18.40
2023-08-14T05:02:05.056Z,18.40
2023-08-14T05:04:31.782Z,18.40
2023-08-14T05:06:58.528Z,18.50
2023-08-14T05:09:27.741Z,18.50
2023-08-14T05:11:55.274Z,18.50
2023-08-14T05:14:22.105Z,18.50
2023-08-14T05:16:48.913Z,18.50
2023-08-14T05:19:15.778Z,18.60
2023-08-14T05:21:42.978Z,21.80
2023-08-14T05:24:09.966Z,18.60
2023-08-14T05:26:36.578Z,18.70
2023-08-14T05:29:03.379Z,18.80
2023-08-14T05:31:30.171Z,18.90
2023-08-14T05:33:56.941Z,19.00
2023-08-14T05:36:23.689Z,19.00
2023-08-14T05:38:50.717Z,19.00
2023-08-14T05:41:18.062Z,19.10
2023-08-14T05:43:44.713Z,19.00
2023-08-14T05:46:11.402Z,19.10
2023-08-14T05:48:38.115Z,19.20
2023-08-14T05:51:04.806Z,19.20
2023-08-14T05:53:31.904Z,19.40
2023-08-14T05:55:58.553Z,19.70
2023-08-14T05:58:25.209Z,19.90
2023-08-14T06:00:51.979Z,20.10
2023-08-14T06:03:29.179Z,20.30
2023-08-14T06:06:05.836Z,20.30
2023-08-14T06:08:32.904Z,20.30
2023-08-14T06:10:59.593Z,20.40
2023-08-14T06:13:26.306Z,20.30
2023-08-14T06:15:53.028Z,20.20
2023-08-14T06:18:19.767Z,20.20
2023-08-14T06:20:46.419Z,20.10
2023-08-14T06:23:13.111Z,20.20
2023-08-14T06:25:39.790Z,20.20
2023-08-14T06:28:06.527Z,20.30
2023-08-14T06:30:33.192Z,20.20
2023-08-14T06:33:00.204Z,20.30
2023-08-14T06:35:26.983Z,20.20
2023-08-14T06:37:53.641Z,20.20
2023-08-14T06:40:20.353Z,20.30
2023-08-14T06:42:47.089Z,20.40
2023-08-14T06:45:13.742Z,20.50
2023-08-14T06:47:45.622Z,20.50
2023-08-14T06:50:13.900Z,20.60
2023-08-14T06:52:40.874Z,20.70
2023-08-14T06:55:08.147Z,20.70
2023-08-14T06:57:34.971Z,20.80
2023-08-14T07:00:06.990Z,20.90
2023-08-14T07:02:34.378Z,21.00
2023-08-14T07:05:01.229Z,21.00
2023-08-14T07:07:27.970Z,21.10
2023-08-14T07:09:54.630Z,21.30
2023-08-14T07:12:21.536Z,21.40
2023-08-14T07:14:49.996Z,21.60
2023-08-14T07:17:16.865Z,21.70
2023-08-14T07:19:43.501Z,21.40
2023-08-14T07:22:10.221Z,18.90
2023-08-14T07:24:36.865Z,21.40
2023-08-14T07:27:03.904Z,21.60
2023-08-14T07:29:30.615Z,21.50
2023-08-14T07:31:57.326Z,21.70
2023-08-14T07:34:24.007Z,21.70
2023-08-14T07:36:50.750Z,21.70
2023-08-14T07:39:20.554Z,21.80
2023-08-14T07:41:47.307Z,22.00
2023-08-14T07:44:14.011Z,22.20
2023-08-14T07:46:40.652Z,22.20
2023-08-14T07:49:07.310Z,22.20
2023-08-14T07:51:33.986Z,22.30
2023-08-14T07:54:00.825Z,22.30
2023-08-14T07:56:27.457Z,22.40
2023-08-14T07:58:54.126Z,22.50
2023-08-14T08:01:20.843Z,22.60
2023-08-14T08:03:47.792Z,22.60
2023-08-14T08:06:14.544Z,24.10
2023-08-14T08:08:43.610Z,23.00
2023-08-14T08:11:12.502Z,22.90
2023-08-14T08:13:39.183Z,22.90
2023-08-14T08:16:06.015Z,22.90
2023-08-14T08:18:32.655Z,22.80
2023-08-14T08:20:59.294Z,22.80
2023-08-14T08:23:25.938Z,24.70
2023-08-14T08:25:52.697Z,23.10
2023-08-14T08:28:19.415Z,23.20
2023-08-14T08:30:46.232Z,23.30
2023-08-14T08:33:12.943Z,23.40
2023-08-14T08:35:39.620Z,23.50
2023-08-14T08:38:06.448Z,23.50
2023-08-14T08:40:34.623Z,23.50
2023-08-14T08:43:03.275Z,23.60
2023-08-14T08:45:33.486Z,23.60
2023-08-14T08:48:08.253Z,23.50
2023-08-14T08:50:35.063Z,23.50
2023-08-14T08:53:02.783Z,23.60
2023-08-14T08:55:30.029Z,23.80
2023-08-14T08:57:59.140Z,23.70
2023-08-14T09:00:26.117Z,23.90
2023-08-14T09:02:52.983Z,23.80
2023-08-14T09:05:20.520Z,23.80
2023-08-14T09:07:49.116Z,23.80
2023-08-14T09:10:16.316Z,23.70
2023-08-14T09:12:43.115Z,23.70
2023-08-14T09:15:10.516Z,23.80
2023-08-14T09:17:37.391Z,23.70
2023-08-14T09:20:11.719Z,23.80
2023-08-14T09:22:46.153Z,23.90
2023-08-14T09:25:13.241Z,24.20
2023-08-14T09:27:40.390Z,24.30
2023-08-14T09:30:08.113Z,24.40
2023-08-14T09:32:34.849Z,24.20
2023-08-14T09:35:03.639Z,24.00
2023-08-14T09:37:30.685Z,23.60
2023-08-14T09:40:17.445Z,24.30
2023-08-14T09:42:48.816Z,24.30
2023-08-14T09:45:17.981Z,24.20
2023-08-14T09:47:49.515Z,24.30
2023-08-14T09:50:20.993Z,24.10
2023-08-14T09:52:47.733Z,24.00
2023-08-14T09:55:15.692Z,24.00
2023-08-14T09:57:43.070Z,24.00
2023-08-14T10:00:12.363Z,23.90
2023-08-14T10:02:40.196Z,24.10
2023-08-14T10:05:10.332Z,24.20
2023-08-14T10:07:39.282Z,24.20
2023-08-14T10:10:09.520Z,21.80
2023-08-14T10:12:50.814Z,24.20
2023-08-14T10:15:22.648Z,24.20
2023-08-14T10:17:56.575Z,24.40
2023-08-14T10:20:23.717Z,24.50
2023-08-14T10:22:53.567Z,24.60
2023-08-14T10:25:23.712Z,24.20
2023-08-14T10:27:52.191Z,24.70
2023-08-14T10:30:24.023Z,24.70
2023-08-14T10:32:52.659Z,24.70
2023-08-14T10:35:22.220Z,24.80
2023-08-14T10:38:00.120Z,25.10
2023-08-14T10:40:31.664Z,25.30
2023-08-14T10:42:59.947Z,25.60
2023-08-14T10:45:30.058Z,25.80
2023-08-14T10:48:01.637Z,25.80
2023-08-14T10:50:30.566Z,26.00
2023-08-14T10:52:57.922Z,25.90
2023-08-14T10:55:46.196Z,25.90
2023-08-14T10:58:34.212Z,25.80
2023-08-14T11:01:11.290Z,25.70
2023-08-14T11:04:10.501Z,25.70
2023-08-14T11:06:58.832Z,25.60
2023-08-14T11:09:29.900Z,25.50
2023-08-14T11:11:58.392Z,25.40
2023-08-14T11:14:25.191Z,25.40
2023-08-14T11:16:51.867Z,25.40
2023-08-14T11:19:20.119Z,25.50
2023-08-14T11:21:48.053Z,25.70
2023-08-14T11:24:14.979Z,25.90
2023-08-14T11:26:41.629Z,26.00
2023-08-14T11:29:08.263Z,26.00
2023-08-14T11:31:41.828Z,26.00
2023-08-14T11:34:15.488Z,26.00
2023-08-14T11:36:43.520Z,25.90
2023-08-14T11:39:11.231Z,25.90
2023-08-14T11:41:37.964Z,26.00
2023-08-14T11:44:04.933Z,25.90
2023-08-14T11:46:31.790Z,25.90
2023-08-14T11:48:59.059Z,26.10
2023-08-14T11:51:26.025Z,25.80
2023-08-14T11:53:53.136Z,27.40
2023-08-14T11:56:19.900Z,25.60
2023-08-14T11:58:51.816Z,25.70
2023-08-14T12:01:24.585Z,25.50
2023-08-14T12:03:52.254Z,25.60
2023-08-14T12:06:19.360Z,25.80
2023-08-14T12:08:47.137Z,25.90
2023-08-14T12:11:17.968Z,26.20
2023-08-14T12:13:54.393Z,26.40
2023-08-14T12:16:27.869Z,26.50
2023-08-14T12:18:55.423Z,26.80
2023-08-14T12:21:27.945Z,26.90
2023-08-14T12:23:55.963Z,26.90
2023-08-14T12:26:23.615Z,27.00
2023-08-14T12:28:50.409Z,27.10
2023-08-14T12:31:17.160Z,27.30
2023-08-14T12:33:46.973Z,27.20
2023-08-14T12:36:15.655Z,27.20
2023-08-14T12:38:42.287Z,27.20
2023-08-14T12:41:08.975Z,27.10
2023-08-14T12:43:40.197Z,27.00
2023-08-14T12:46:10.114Z,27.10
2023-08-14T12:48:36.915Z,27.00
2023-08-14T12:51:04.741Z,27.00
2023-08-14T12:53:31.519Z,27.20
2023-08-14T12:56:03.588Z,27.20
2023-08-14T12:58:31.130Z,27.20
2023-08-14T13:01:03.811Z,27.20
2023-08-14T13:03:36.618Z,27.20
2023-08-14T13:06:05.454Z,27.40
2023-08-14T13:08:32.100Z,27.50
2023-08-14T13:10:58.950Z,27.50
2023-08-14T13:13:28.061Z,27.60
2023-08-14T13:15:55.754Z,27.40
2023-08-14T13:18:23.514Z,27.20
2023-08-14T13:20:50.230Z,27.20
2023-08-14T13:23:17.118Z,27.10
2023-08-14T13:25:43.997Z,27.10
2023-08-14T13:28:10.838Z,27.00
2023-08-14T13:30:37.645Z,26.90
2023-08-14T13:33:05.772Z,27.00
2023-08-14T13:35:32.533Z,27.00
2023-08-14T13:38:00.310Z,27.20
2023-08-14T13:40:27.649Z,27.10
2023-08-14T13:42:54.409Z,26.90
2023-08-14T13:45:21.121Z,27.20
2023-08-14T13:47:55.281Z,27.10
2023-08-14T13:50:33.701Z,27.40
2023-08-14T13:53:04.509Z,27.50
2023-08-14T13:55:33.203Z,27.70
2023-08-14T13:58:01.051Z,27.90
2023-08-14T14:00:30.363Z,27.90
2023-08-14T14:02:58.865Z,26.80
2023-08-14T14:05:26.289Z,28.00
2023-08-14T14:07:55.676Z,27.90
2023-08-14T14:10:27.587Z,27.50
2023-08-14T14:15:24.311Z,27.50
2023-08-14T14:17:51.327Z,27.50
2023-08-14T14:20:18.222Z,27.40
2023-08-14T14:22:44.930Z,27.50
2023-08-14T14:25:12.568Z,27.40
2023-08-14T14:27:39.458Z,26.90
2023-08-14T14:30:07.326Z,26.80
2023-08-14T14:32:34.123Z,25.90
2023-08-14T14:35:00.874Z,26.90
2023-08-14T14:37:27.567Z,27.00
2023-08-14T14:39:54.189Z,27.40
2023-08-14T14:42:21.018Z,27.80
2023-08-14T14:44:49.437Z,28.30
2023-08-14T14:47:16.076Z,28.40
2023-08-14T14:49:42.730Z,28.30
2023-08-14T14:52:09.422Z,28.30
2023-08-14T14:54:36.475Z,28.40
2023-08-14T14:57:03.272Z,28.60
2023-08-14T14:59:29.938Z,28.80
2023-08-14T15:01:56.569Z,29.00
2023-08-14T15:04:23.235Z,29.20
2023-08-14T15:06:49.886Z,29.20
2023-08-14T15:09:16.534Z,28.90
2023-08-14T15:11:43.228Z,28.60
2023-08-14T15:14:09.959Z,28.80
2023-08-14T15:16:36.660Z,28.80
2023-08-14T15:19:03.395Z,28.70
2023-08-14T15:21:30.044Z,28.50
2023-08-14T15:23:56.780Z,28.50
2023-08-14T15:26:23.450Z,28.10
2023-08-14T15:28:50.315Z,27.80
2023-08-14T15:31:16.969Z,27.60
2023-08-14T15:33:43.641Z,27.20
2023-08-14T15:36:10.273Z,27.20
2023-08-14T15:38:36.907Z,27.50
2023-08-14T15:41:09.257Z,27.50
2023-08-14T15:43:35.984Z,27.60
2023-08-14T15:46:04.289Z,27.80
2023-08-14T15:48:31.090Z,28.20
2023-08-14T15:50:57.712Z,28.60
2023-08-14T15:53:24.385Z,28.70
2023-08-14T15:55:51.078Z,28.30
2023-08-14T15:58:17.881Z,28.30
2023-08-14T16:00:45.066Z,28.10
2023-08-14T16:03:12.116Z,28.40
2023-08-14T16:05:40.336Z,28.70
2023-08-14T16:08:07.481Z,29.10
2023-08-14T16:10:34.189Z,29.40
2023-08-14T16:13:00.977Z,31.20
2023-08-14T16:15:27.734Z,33.60
2023-08-14T16:17:54.509Z,34.90
2023-08-14T16:20:21.205Z,33.30
2023-08-14T16:22:47.884Z,32.30
2023-08-14T16:25:14.558Z,30.90
2023-08-14T16:27:41.302Z,29.50
2023-08-14T16:30:08.568Z,28.70
2023-08-14T16:32:35.228Z,28.40
2023-08-14T16:35:01.984Z,28.20
2023-08-14T16:37:28.717Z,28.10
2023-08-14T16:39:55.742Z,28.10
2023-08-14T16:42:22.476Z,28.10
2023-08-14T16:44:49.134Z,27.90
2023-08-14T16:47:15.805Z,28.00
2023-08-14T16:49:42.469Z,28.10
2023-08-14T16:52:09.202Z,28.20
2023-08-14T16:54:35.862Z,28.00
2023-08-14T16:57:02.561Z,28.30
2023-08-14T16:59:29.232Z,28.50
2023-08-14T17:01:55.905Z,28.10
2023-08-14T17:04:22.622Z,28.00
2023-08-14T17:06:49.399Z,28.00
2023-08-14T17:09:16.485Z,27.90
2023-08-14T17:11:43.196Z,27.90
2023-08-14T17:14:10.098Z,27.90
2023-08-14T17:16:36.818Z,27.80
2023-08-14T17:19:03.567Z,27.70
2023-08-14T17:21:30.278Z,27.70
2023-08-14T17:23:56.932Z,27.50
2023-08-14T17:26:23.715Z,27.50
2023-08-14T17:28:50.366Z,27.40
2023-08-14T17:31:17.391Z,27.40
2023-08-14T17:33:44.058Z,27.40
2023-08-14T17:36:10.749Z,27.40
2023-08-14T17:38:37.403Z,27.50
2023-08-14T17:41:04.408Z,27.40
2023-08-14T17:43:31.167Z,27.40
2023-08-14T17:45:58.689Z,27.30
2023-08-14T17:48:25.640Z,27.30
2023-08-14T17:50:53.111Z,27.20
2023-08-14T17:53:21.104Z,27.10
2023-08-14T17:55:47.765Z,27.10
2023-08-14T17:58:14.469Z,27.10
2023-08-14T18:00:49.375Z,27.10
2023-08-14T18:03:16.150Z,27.00
2023-08-14T18:05:49.192Z,26.90
2023-08-14T18:08:16.254Z,26.90
2023-08-14T18:10:43.084Z,26.90
2023-08-14T18:13:09.730Z,26.80
2023-08-14T18:15:36.427Z,26.70
2023-08-14T18:18:03.137Z,26.70
2023-08-14T18:20:29.871Z,26.70
2023-08-14T18:22:56.531Z,26.60
2023-08-14T18:25:24.307Z,26.50
2023-08-14T18:27:51.233Z,26.50
2023-08-14T18:30:18.052Z,26.50
2023-08-14T18:32:44.716Z,26.40
2023-08-14T18:35:11.512Z,26.30
2023-08-14T18:37:38.175Z,26.30
2023-08-14T18:40:05.405Z,26.20
2023-08-14T18:42:32.388Z,26.10
2023-08-14T18:44:59.215Z,26.10
2023-08-14T18:47:26.190Z,26.00
2023-08-14T18:49:52.963Z,25.80
2023-08-14T18:52:19.610Z,25.70
2023-08-14T18:54:48.033Z,25.60
2023-08-14T18:57:14.666Z,25.50
2023-08-14T18:59:48.188Z,25.40
2023-08-14T19:02:15.043Z,25.20
2023-08-14T19:04:43.741Z,25.20
2023-08-14T19:07:11.753Z,25.10
2023-08-14T19:09:38.849Z,25.10
2023-08-14T19:12:07.214Z,24.90
2023-08-14T19:14:34.646Z,24.90
2023-08-14T19:17:01.340Z,24.70
2023-08-14T19:19:28.323Z,24.70
2023-08-14T19:21:55.101Z,24.70
2023-08-14T19:24:22.038Z,25.00
2023-08-14T19:26:48.709Z,24.50
2023-08-14T19:29:15.504Z,24.50
2023-08-14T19:31:42.215Z,24.40
2023-08-14T19:34:08.968Z,24.30
2023-08-14T19:36:35.655Z,24.30
2023-08-14T19:39:02.690Z,24.20
2023-08-14T19:41:29.583Z,24.10
2023-08-14T19:43:56.343Z,24.10
2023-08-14T19:46:23.045Z,24.10
2023-08-14T19:48:49.772Z,25.60
2023-08-14T19:51:16.663Z,24.00
2023-08-14T19:53:43.343Z,22.70
2023-08-14T19:56:10.047Z,23.90
2023-08-14T19:58:36.691Z,23.80
2023-08-14T20:01:03.779Z,23.80
2023-08-14T20:03:31.178Z,23.80
2023-08-14T20:05:58.063Z,23.70
2023-08-14T20:08:25.087Z,23.70
2023-08-14T20:10:51.892Z,23.70
2023-08-14T20:13:18.640Z,23.60
2023-08-14T20:15:47.178Z,23.60
2023-08-14T20:18:15.490Z,23.60
2023-08-14T20:20:44.015Z,23.50
2023-08-14T20:23:11.498Z,23.50
2023-08-14T20:25:38.809Z,24.90
2023-08-14T20:28:06.848Z,23.40
2023-08-14T20:30:40.256Z,23.40
2023-08-14T20:33:07.276Z,23.30
2023-08-14T20:35:46.246Z,23.30
2023-08-14T20:38:13.324Z,23.30
2023-08-14T20:40:40.791Z,23.20
2023-08-14T20:43:12.161Z,23.20
2023-08-14T20:45:40.486Z,23.20
2023-08-14T20:48:07.830Z,23.20
2023-08-14T20:50:34.637Z,23.10
2023-08-14T20:55:28.605Z,23.10
2023-08-14T20:57:55.428Z,23.10
2023-08-14T21:00:22.127Z,23.10
2023-08-14T21:02:48.908Z,23.10
2023-08-14T21:05:15.790Z,23.10
2023-08-14T21:07:42.484Z,23.00
2023-08-14T21:10:09.229Z,23.00
2023-08-14T21:12:35.902Z,23.00
2023-08-14T21:15:02.678Z,22.90
2023-08-14T21:17:29.395Z,22.90
2023-08-14T21:19:56.147Z,22.90
2023-08-14T21:22:22.771Z,22.90
2023-08-14T21:24:49.432Z,22.90
2023-08-14T21:27:17.501Z,22.90
2023-08-14T21:29:44.522Z,22.90
2023-08-14T21:32:11.179Z,22.90
2023-08-14T21:34:41.302Z,22.90
2023-08-14T21:37:08.605Z,22.80
2023-08-14T21:39:35.373Z,22.90
2023-08-14T21:42:02.084Z,22.80
2023-08-14T21:44:28.756Z,22.70
2023-08-14T21:46:55.444Z,22.70
2023-08-14T21:49:22.179Z,22.60
2023-08-14T21:51:49.018Z,22.60
2023-08-14T21:54:18.853Z,22.60
2023-08-14T21:56:46.744Z,22.70
2023-08-14T21:59:14.100Z,22.70
2023-08-14T22:01:40.823Z,22.70
2023-08-14T22:04:07.661Z,22.70
2023-08-14T22:06:34.587Z,22.60
2023-08-14T22:09:01.399Z,22.70
2023-08-14T22:11:29.296Z,22.70
2023-08-14T22:13:57.700Z,22.70
2023-08-14T22:16:24.750Z,22.70
2023-08-14T22:18:53.221Z,22.60
2023-08-14T22:21:20.831Z,22.70
2023-08-14T22:23:47.846Z,22.60
2023-08-14T22:26:17.030Z,22.50
2023-08-14T22:28:43.706Z,22.50
2023-08-14T22:31:16.559Z,22.50
2023-08-14T22:33:44.291Z,22.40
2023-08-14T22:36:11.439Z,22.40
2023-08-14T22:38:38.748Z,22.40
2023-08-14T22:41:05.490Z,22.40
2023-08-14T22:43:32.214Z,22.30
2023-08-14T22:45:58.920Z,22.30
2023-08-14T22:48:25.694Z,22.30
2023-08-14T22:50:52.372Z,22.20
2023-08-14T22:53:19.173Z,22.20
2023-08-14T22:55:47.822Z,22.20
2023-08-14T22:58:14.461Z,22.10
2023-08-14T23:00:41.091Z,22.10
2023-08-14T23:03:07.831Z,22.10
2023-08-14T23:05:34.569Z,22.00
2023-08-14T23:10:28.404Z,22.00
2023-08-14T23:12:55.115Z,22.00
2023-08-14T23:15:22.679Z,22.00
2023-08-14T23:17:49.412Z,18.50
2023-08-14T23:20:16.408Z,22.00
2023-08-14T23:22:43.124Z,22.00
2023-08-14T23:25:10.134Z,21.90
2023-08-14T23:27:37.167Z,21.90
2023-08-14T23:30:04.113Z,21.90
2023-08-14T23:32:31.013Z,21.80
2023-08-14T23:34:57.796Z,21.90
2023-08-14T23:37:24.482Z,21.90
2023-08-14T23:39:51.136Z,21.90
2023-08-14T23:42:18.063Z,21.80
2023-08-14T23:44:44.892Z,21.90
2023-08-14T23:47:11.531Z,21.90
2023-08-14T23:49:38.709Z,21.70
2023-08-14T23:52:05.387Z,21.80
2023-08-14T23:54:32.116Z,21.80
2023-08-14T23:59:25.882Z,21.80
